sensor_id;sensor_type;location;lat;lon;timestamp;pressure;altitude;pressure_sealevel;temperature;humidity
29169;BME280;16219;42.864;23.360;2023-05-19T00:01:12;96045.78;;;11.33;100.00
29169;BME280;16219;42.864;23.360;2023-05-19T00:03:50;96048.59;;;11.36;100.00
29169;BME280;16219;42.864;23.360;2023-05-19T00:06:23;96040.06;;;11.31;100.00
29169;BME280;16219;42.864;23.360;2023-05-19T00:08:57;96034.31;;;11.37;100.00
29169;BME280;16219;42.864;23.360;2023-05-19T00:11:24;96039.13;;;11.35;100.00
29169;BME280;16219;42.864;23.360;2023-05-19T00:13:54;96039.91;;;11.44;100.00
29169;BME280;16219;42.864;23.360;2023-05-19T00:16:24;96039.00;;;11.49;100.00
29169;BME280;16219;42.864;23.360;2023-05-19T00:18:53;96036.19;;;11.45;100.00
29169;BME280;16219;42.864;23.360;2023-05-19T00:21:22;96045.66;;;11.46;100.00
29169;BME280;16219;42.864;23.360;2023-05-19T00:23:50;96042.88;;;11.51;100.00
29169;BME280;16219;42.864;23.360;2023-05-19T00:26:17;96036.78;;;11.42;100.00
29169;BME280;16219;42.864;23.360;2023-05-19T00:28:54;96035.06;;;11.38;100.00
29169;BME280;16219;42.864;23.360;2023-05-19T00:31:23;96027.03;;;11.51;100.00
29169;BME280;16219;42.864;23.360;2023-05-19T00:33:50;96027.03;;;11.43;100.00
29169;BME280;16219;42.864;23.360;2023-05-19T00:36:20;96027.94;;;11.38;100.00
29169;BME280;16219;42.864;23.360;2023-05-19T00:38:46;96030.56;;;11.38;100.00
29169;BME280;16219;42.864;23.360;2023-05-19T00:41:16;96032.91;;;11.31;100.00
29169;BME280;16219;42.864;23.360;2023-05-19T00:43:43;96035.69;;;11.26;100.00
29169;BME280;16219;42.864;23.360;2023-05-19T00:46:12;96027.88;;;11.12;100.00
29169;BME280;16219;42.864;23.360;2023-05-19T00:48:41;96032.13;;;11.22;100.00
29169;BME280;16219;42.864;23.360;2023-05-19T00:51:11;96016.28;;;11.22;100.00
29169;BME280;16219;42.864;23.360;2023-05-19T00:53:41;96023.56;;;11.25;100.00
29169;BME280;16219;42.864;23.360;2023-05-19T00:56:13;96036.75;;;11.25;100.00
29169;BME280;16219;42.864;23.360;2023-05-19T00:58:41;96028.06;;;11.16;100.00
29169;BME280;16219;42.864;23.360;2023-05-19T01:01:10;96029.44;;;11.05;100.00
29169;BME280;16219;42.864;23.360;2023-05-19T01:03:40;96032.19;;;10.99;100.00
29169;BME280;16219;42.864;23.360;2023-05-19T01:06:09;96036.72;;;11.08;100.00
29169;BME280;16219;42.864;23.360;2023-05-19T01:08:37;96027.25;;;11.07;100.00
29169;BME280;16219;42.864;23.360;2023-05-19T01:11:06;96021.00;;;10.94;100.00
29169;BME280;16219;42.864;23.360;2023-05-19T01:13:34;96030.19;;;10.96;100.00
29169;BME280;16219;42.864;23.360;2023-05-19T01:16:06;96022.50;;;10.77;100.00
29169;BME280;16219;42.864;23.360;2023-05-19T01:18:45;96001.34;;;10.60;100.00
29169;BME280;16219;42.864;23.360;2023-05-19T01:21:29;96033.03;;;10.69;100.00
29169;BME280;16219;42.864;23.360;2023-05-19T01:24:12;96016.38;;;10.60;100.00
29169;BME280;16219;42.864;23.360;2023-05-19T01:27:17;96042.47;;;10.61;100.00
29169;BME280;16219;42.864;23.360;2023-05-19T01:30:11;96042.41;;;10.52;100.00
29169;BME280;16219;42.864;23.360;2023-05-19T01:32:40;96034.41;;;10.35;100.00
29169;BME280;16219;42.864;23.360;2023-05-19T01:35:08;96053.31;;;10.29;100.00
29169;BME280;16219;42.864;23.360;2023-05-19T01:37:37;96051.31;;;10.34;100.00
29169;BME280;16219;42.864;23.360;2023-05-19T01:40:06;96010.19;;;10.11;100.00
29169;BME280;16219;42.864;23.360;2023-05-19T01:42:34;96043.53;;;10.29;100.00
29169;BME280;16219;42.864;23.360;2023-05-19T01:45:06;96044.91;;;10.26;100.00
29169;BME280;16219;42.864;23.360;2023-05-19T01:47:41;96033.47;;;10.31;100.00
29169;BME280;16219;42.864;23.360;2023-05-19T01:50:09;96020.50;;;10.21;100.00
29169;BME280;16219;42.864;23.360;2023-05-19T01:52:38;96010.94;;;10.25;100.00
29169;BME280;16219;42.864;23.360;2023-05-19T01:55:07;96039.91;;;10.47;100.00
29169;BME280;16219;42.864;23.360;2023-05-19T01:57:42;96030.44;;;10.46;100.00
29169;BME280;16219;42.864;23.360;2023-05-19T02:00:19;96033.56;;;10.48;100.00
29169;BME280;16219;42.864;23.360;2023-05-19T02:02:57;96034.91;;;10.37;100.00
29169;BME280;16219;42.864;23.360;2023-05-19T02:05:35;96023.03;;;10.26;100.00
29169;BME280;16219;42.864;23.360;2023-05-19T02:08:11;96026.69;;;10.39;100.00
29169;BME280;16219;42.864;23.360;2023-05-19T02:10:44;96038.00;;;10.39;100.00
29169;BME280;16219;42.864;23.360;2023-05-19T02:13:19;96028.97;;;10.32;100.00
29169;BME280;16219;42.864;23.360;2023-05-19T02:15:54;96036.28;;;10.35;100.00
29169;BME280;16219;42.864;23.360;2023-05-19T02:18:30;96039.41;;;10.37;100.00
29169;BME280;16219;42.864;23.360;2023-05-19T02:20:59;96040.47;;;10.36;100.00
29169;BME280;16219;42.864;23.360;2023-05-19T02:23:28;96042.50;;;10.39;100.00
29169;BME280;16219;42.864;23.360;2023-05-19T02:25:56;96047.00;;;10.38;100.00
29169;BME280;16219;42.864;23.360;2023-05-19T02:28:24;96048.09;;;10.37;100.00
29169;BME280;16219;42.864;23.360;2023-05-19T02:30:52;96055.25;;;10.23;100.00
29169;BME280;16219;42.864;23.360;2023-05-19T02:33:20;96052.16;;;10.21;100.00
29169;BME280;16219;42.864;23.360;2023-05-19T02:35:53;96047.97;;;10.20;100.00
29169;BME280;16219;42.864;23.360;2023-05-19T02:38:20;96042.69;;;10.20;100.00
29169;BME280;16219;42.864;23.360;2023-05-19T02:40:50;96042.50;;;10.16;100.00
29169;BME280;16219;42.864;23.360;2023-05-19T02:43:17;96040.09;;;10.06;100.00
29169;BME280;16219;42.864;23.360;2023-05-19T02:45:45;96031.28;;;10.11;100.00
29169;BME280;16219;42.864;23.360;2023-05-19T02:48:11;96029.41;;;10.02;100.00
29169;BME280;16219;42.864;23.360;2023-05-19T02:50:40;96027.50;;;9.94;100.00
29169;BME280;16219;42.864;23.360;2023-05-19T02:53:10;96031.72;;;10.04;100.00
29169;BME280;16219;42.864;23.360;2023-05-19T02:55:37;96046.34;;;10.10;100.00
29169;BME280;16219;42.864;23.360;2023-05-19T02:58:04;95979.75;;;9.73;100.00
29169;BME280;16219;42.864;23.360;2023-05-19T03:00:32;96029.91;;;10.13;100.00
29169;BME280;16219;42.864;23.360;2023-05-19T03:02:59;96049.97;;;10.23;100.00
29169;BME280;16219;42.864;23.360;2023-05-19T03:05:30;96051.19;;;10.17;100.00
29169;BME280;16219;42.864;23.360;2023-05-19T03:07:57;96052.63;;;10.00;100.00
29169;BME280;16219;42.864;23.360;2023-05-19T03:10:25;96065.69;;;10.06;100.00
29169;BME280;16219;42.864;23.360;2023-05-19T03:12:52;96061.25;;;10.15;100.00
29169;BME280;16219;42.864;23.360;2023-05-19T03:15:20;96055.06;;;10.19;100.00
29169;BME280;16219;42.864;23.360;2023-05-19T03:17:48;96067.38;;;10.24;100.00
29169;BME280;16219;42.864;23.360;2023-05-19T03:20:16;96055.50;;;10.13;100.00
29169;BME280;16219;42.864;23.360;2023-05-19T03:22:43;96060.41;;;10.06;100.00
29169;BME280;16219;42.864;23.360;2023-05-19T03:25:10;96063.28;;;10.18;100.00
29169;BME280;16219;42.864;23.360;2023-05-19T03:27:39;96067.38;;;10.24;100.00
29169;BME280;16219;42.864;23.360;2023-05-19T03:30:08;96067.22;;;10.07;100.00
29169;BME280;16219;42.864;23.360;2023-05-19T03:32:47;96068.13;;;10.02;100.00
29169;BME280;16219;42.864;23.360;2023-05-19T03:35:17;96061.25;;;10.15;100.00
29169;BME280;16219;42.864;23.360;2023-05-19T03:37:44;96066.53;;;10.15;100.00
29169;BME280;16219;42.864;23.360;2023-05-19T03:40:12;96060.34;;;10.19;100.00
29169;BME280;16219;42.864;23.360;2023-05-19T03:42:44;96070.59;;;10.21;100.00
29169;BME280;16219;42.864;23.360;2023-05-19T03:45:11;96067.16;;;10.34;100.00
29169;BME280;16219;42.864;23.360;2023-05-19T03:47:41;96077.09;;;10.37;100.00
29169;BME280;16219;42.864;23.360;2023-05-19T03:50:33;96056.00;;;10.37;100.00
29169;BME280;16219;42.864;23.360;2023-05-19T03:53:15;96075.44;;;10.41;100.00
29169;BME280;16219;42.864;23.360;2023-05-19T03:55:43;96056.97;;;10.41;100.00
29169;BME280;16219;42.864;23.360;2023-05-19T03:58:13;96080.66;;;10.64;100.00
29169;BME280;16219;42.864;23.360;2023-05-19T04:00:40;96084.47;;;10.80;100.00
29169;BME280;16219;42.864;23.360;2023-05-19T04:03:08;96085.00;;;10.99;100.00
29169;BME280;16219;42.864;23.360;2023-05-19T04:05:35;96046.47;;;10.90;100.00
29169;BME280;16219;42.864;23.360;2023-05-19T04:08:02;96089.16;;;11.32;100.00
29169;BME280;16219;42.864;23.360;2023-05-19T04:10:29;96093.69;;;11.48;100.00
29169;BME280;16219;42.864;23.360;2023-05-19T04:12:56;96092.00;;;11.52;100.00
29169;BME280;16219;42.864;23.360;2023-05-19T04:15:26;96099.94;;;11.70;100.00
29169;BME280;16219;42.864;23.360;2023-05-19T04:17:54;96102.91;;;11.77;100.00
29169;BME280;16219;42.864;23.360;2023-05-19T04:20:22;96104.19;;;12.23;100.00
29169;BME280;16219;42.864;23.360;2023-05-19T04:22:49;96105.56;;;13.02;100.00
29169;BME280;16219;42.864;23.360;2023-05-19T04:25:16;96115.78;;;13.80;100.00
29169;BME280;16219;42.864;23.360;2023-05-19T04:27:44;96114.31;;;14.66;100.00
29169;BME280;16219;42.864;23.360;2023-05-19T04:30:13;96127.56;;;14.87;100.00
29169;BME280;16219;42.864;23.360;2023-05-19T04:32:48;96112.97;;;15.18;100.00
29169;BME280;16219;42.864;23.360;2023-05-19T04:35:15;96116.94;;;15.61;100.00
29169;BME280;16219;42.864;23.360;2023-05-19T04:37:45;96102.06;;;15.96;100.00
29169;BME280;16219;42.864;23.360;2023-05-19T04:40:16;96118.84;;;15.85;100.00
29169;BME280;16219;42.864;23.360;2023-05-19T04:42:46;96115.19;;;15.89;100.00
29169;BME280;16219;42.864;23.360;2023-05-19T04:45:15;96116.09;;;16.09;100.00
29169;BME280;16219;42.864;23.360;2023-05-19T04:47:44;96120.19;;;16.19;100.00
29169;BME280;16219;42.864;23.360;2023-05-19T04:50:14;96114.28;;;16.54;100.00
29169;BME280;16219;42.864;23.360;2023-05-19T04:52:41;96107.53;;;16.28;100.00
29169;BME280;16219;42.864;23.360;2023-05-19T04:55:10;96121.16;;;16.55;100.00
29169;BME280;16219;42.864;23.360;2023-05-19T04:57:38;96121.75;;;16.76;100.00
29169;BME280;16219;42.864;23.360;2023-05-19T05:00:07;96126.97;;;16.72;100.00
29169;BME280;16219;42.864;23.360;2023-05-19T05:02:48;96117.03;;;17.33;100.00
29169;BME280;16219;42.864;23.360;2023-05-19T05:05:20;96120.81;;;17.98;100.00
29169;BME280;16219;42.864;23.360;2023-05-19T05:07:47;96123.50;;;18.18;100.00
29169;BME280;16219;42.864;23.360;2023-05-19T05:10:15;96121.56;;;18.15;100.00
29169;BME280;16219;42.864;23.360;2023-05-19T05:12:42;96130.47;;;18.03;100.00
29169;BME280;16219;42.864;23.360;2023-05-19T05:15:10;96131.13;;;17.65;100.00
29169;BME280;16219;42.864;23.360;2023-05-19T05:17:38;96124.28;;;17.01;100.00
29169;BME280;16219;42.864;23.360;2023-05-19T05:20:06;96125.97;;;16.49;100.00
29169;BME280;16219;42.864;23.360;2023-05-19T05:22:36;96129.28;;;16.18;100.00
29169;BME280;16219;42.864;23.360;2023-05-19T05:25:05;96124.81;;;16.22;100.00
29169;BME280;16219;42.864;23.360;2023-05-19T05:27:33;96116.94;;;16.54;100.00
29169;BME280;16219;42.864;23.360;2023-05-19T05:30:00;96117.47;;;16.87;100.00
29169;BME280;16219;42.864;23.360;2023-05-19T05:32:27;96110.28;;;17.04;100.00
29169;BME280;16219;42.864;23.360;2023-05-19T05:34:55;96113.00;;;16.91;100.00
29169;BME280;16219;42.864;23.360;2023-05-19T05:37:23;96111.75;;;16.73;100.00
29169;BME280;16219;42.864;23.360;2023-05-19T05:39:52;96113.78;;;16.64;100.00
29169;BME280;16219;42.864;23.360;2023-05-19T05:42:19;96112.66;;;16.49;100.00
29169;BME280;16219;42.864;23.360;2023-05-19T05:44:48;96115.75;;;16.23;100.00
29169;BME280;16219;42.864;23.360;2023-05-19T05:47:16;96114.19;;;16.22;100.00
29169;BME280;16219;42.864;23.360;2023-05-19T05:49:45;96117.09;;;16.17;100.00
29169;BME280;16219;42.864;23.360;2023-05-19T05:52:15;96114.88;;;16.19;100.00
29169;BME280;16219;42.864;23.360;2023-05-19T05:54:47;96123.50;;;16.28;100.00
29169;BME280;16219;42.864;23.360;2023-05-19T05:57:19;96132.78;;;16.34;100.00
29169;BME280;16219;42.864;23.360;2023-05-19T05:59:46;96126.97;;;16.44;100.00
29169;BME280;16219;42.864;23.360;2023-05-19T06:02:16;96136.63;;;16.49;100.00
29169;BME280;16219;42.864;23.360;2023-05-19T06:04:44;96137.34;;;16.62;100.00
29169;BME280;16219;42.864;23.360;2023-05-19T06:07:14;96135.16;;;16.80;100.00
29169;BME280;16219;42.864;23.360;2023-05-19T06:09:43;96147.50;;;17.00;100.00
29169;BME280;16219;42.864;23.360;2023-05-19T06:12:11;96143.81;;;17.05;100.00
29169;BME280;16219;42.864;23.360;2023-05-19T06:14:45;96143.81;;;17.20;100.00
29169;BME280;16219;42.864;23.360;2023-05-19T06:17:39;96143.66;;;17.29;100.00
29169;BME280;16219;42.864;23.360;2023-05-19T06:20:07;96137.59;;;17.32;100.00
29169;BME280;16219;42.864;23.360;2023-05-19T06:22:35;96140.44;;;17.39;100.00
29169;BME280;16219;42.864;23.360;2023-05-19T06:25:04;96138.19;;;17.57;100.00
29169;BME280;16219;42.864;23.360;2023-05-19T06:27:33;96138.28;;;17.77;100.00
29169;BME280;16219;42.864;23.360;2023-05-19T06:30:04;96133.34;;;17.79;100.00
29169;BME280;16219;42.864;23.360;2023-05-19T06:32:41;96128.03;;;17.63;100.00
29169;BME280;16219;42.864;23.360;2023-05-19T06:35:08;96138.16;;;17.89;100.00
29169;BME280;16219;42.864;23.360;2023-05-19T06:37:36;96145.81;;;17.90;100.00
29169;BME280;16219;42.864;23.360;2023-05-19T06:40:04;96151.41;;;18.01;100.00
29169;BME280;16219;42.864;23.360;2023-05-19T06:45:15;96130.53;;;18.07;100.00
29169;BME280;16219;42.864;23.360;2023-05-19T06:47:47;96144.47;;;18.35;100.00
29169;BME280;16219;42.864;23.360;2023-05-19T06:50:16;96139.97;;;18.39;100.00
29169;BME280;16219;42.864;23.360;2023-05-19T06:52:45;96137.34;;;18.43;100.00
29169;BME280;16219;42.864;23.360;2023-05-19T06:55:13;96126.63;;;18.39;100.00
29169;BME280;16219;42.864;23.360;2023-05-19T06:57:41;96148.97;;;18.51;100.00
29169;BME280;16219;42.864;23.360;2023-05-19T07:00:10;96139.84;;;18.71;100.00
29169;BME280;16219;42.864;23.360;2023-05-19T07:02:42;96145.72;;;18.61;100.00
29169;BME280;16219;42.864;23.360;2023-05-19T07:05:09;96142.00;;;18.85;100.00
29169;BME280;16219;42.864;23.360;2023-05-19T07:07:37;96149.63;;;19.06;100.00
29169;BME280;16219;42.864;23.360;2023-05-19T07:10:09;96141.97;;;19.04;100.00
29169;BME280;16219;42.864;23.360;2023-05-19T07:12:36;96142.84;;;19.12;100.00
29169;BME280;16219;42.864;23.360;2023-05-19T07:15:15;96147.47;;;19.15;100.00
29169;BME280;16219;42.864;23.360;2023-05-19T07:17:44;96143.97;;;19.34;100.00
29169;BME280;16219;42.864;23.360;2023-05-19T07:20:12;96148.66;;;19.40;100.00
29169;BME280;16219;42.864;23.360;2023-05-19T07:22:40;96116.66;;;19.21;100.00
29169;BME280;16219;42.864;23.360;2023-05-19T07:25:08;96125.91;;;19.27;100.00
29169;BME280;16219;42.864;23.360;2023-05-19T07:27:36;96138.06;;;19.47;100.00
29169;BME280;16219;42.864;23.360;2023-05-19T07:30:07;96141.13;;;19.46;100.00
29169;BME280;16219;42.864;23.360;2023-05-19T07:32:35;96135.00;;;19.45;100.00
29169;BME280;16219;42.864;23.360;2023-05-19T07:35:07;96125.09;;;19.49;100.00
29169;BME280;16219;42.864;23.360;2023-05-19T07:37:36;96135.59;;;19.85;100.00
29169;BME280;16219;42.864;23.360;2023-05-19T07:40:05;96134.03;;;20.10;100.00
29169;BME280;16219;42.864;23.360;2023-05-19T07:42:33;96129.81;;;20.09;100.00
29169;BME280;16219;42.864;23.360;2023-05-19T07:45:04;96134.69;;;20.34;100.00
29169;BME280;16219;42.864;23.360;2023-05-19T07:47:34;96133.69;;;20.45;100.00
29169;BME280;16219;42.864;23.360;2023-05-19T07:50:03;96111.81;;;20.40;100.00
29169;BME280;16219;42.864;23.360;2023-05-19T07:52:32;96138.25;;;20.75;100.00
29169;BME280;16219;42.864;23.360;2023-05-19T07:55:00;96133.00;;;20.86;100.00
29169;BME280;16219;42.864;23.360;2023-05-19T07:57:31;96134.91;;;20.85;100.00
29169;BME280;16219;42.864;23.360;2023-05-19T07:59:59;96136.19;;;20.99;99.17
29169;BME280;16219;42.864;23.360;2023-05-19T08:02:38;96133.03;;;20.89;93.36
29169;BME280;16219;42.864;23.360;2023-05-19T08:05:08;96138.56;;;21.07;100.00
29169;BME280;16219;42.864;23.360;2023-05-19T08:07:38;96129.34;;;21.05;98.89
29169;BME280;16219;42.864;23.360;2023-05-19T08:10:07;96132.88;;;20.75;93.47
29169;BME280;16219;42.864;23.360;2023-05-19T08:12:35;96129.72;;;20.66;100.00
29169;BME280;16219;42.864;23.360;2023-05-19T08:15:04;96132.31;;;20.59;90.20
29169;BME280;16219;42.864;23.360;2023-05-19T08:17:33;96126.56;;;20.57;91.14
29169;BME280;16219;42.864;23.360;2023-05-19T08:20:02;96132.47;;;20.69;91.05
29169;BME280;16219;42.864;23.360;2023-05-19T08:22:42;96132.13;;;20.75;99.37
29169;BME280;16219;42.864;23.360;2023-05-19T08:25:10;96130.84;;;20.99;100.00
29169;BME280;16219;42.864;23.360;2023-05-19T08:27:38;96124.91;;;21.23;85.91
29169;BME280;16219;42.864;23.360;2023-05-19T08:30:07;96130.69;;;21.25;82.63
29169;BME280;16219;42.864;23.360;2023-05-19T08:32:35;96100.28;;;21.14;84.13
29169;BME280;16219;42.864;23.360;2023-05-19T08:35:02;96134.22;;;21.33;83.31
29169;BME280;16219;42.864;23.360;2023-05-19T08:37:31;96130.47;;;21.41;81.08
29169;BME280;16219;42.864;23.360;2023-05-19T08:40:00;96121.88;;;21.28;84.96
29169;BME280;16219;42.864;23.360;2023-05-19T08:42:29;96114.19;;;21.27;79.70
29169;BME280;16219;42.864;23.360;2023-05-19T08:44:57;96130.06;;;21.42;86.01
29169;BME280;16219;42.864;23.360;2023-05-19T08:47:25;96119.00;;;21.48;95.85
29169;BME280;16219;42.864;23.360;2023-05-19T08:50:05;96114.78;;;21.46;82.32
29169;BME280;16219;42.864;23.360;2023-05-19T08:52:41;96111.38;;;21.57;80.59
29169;BME280;16219;42.864;23.360;2023-05-19T08:55:18;96106.91;;;21.79;78.17
29169;BME280;16219;42.864;23.360;2023-05-19T08:57:51;96098.19;;;21.92;79.60
29169;BME280;16219;42.864;23.360;2023-05-19T09:00:19;96100.22;;;22.17;89.25
29169;BME280;16219;42.864;23.360;2023-05-19T09:02:48;96113.41;;;22.43;75.84
29169;BME280;16219;42.864;23.360;2023-05-19T09:05:17;96111.78;;;22.28;62.12
29169;BME280;16219;42.864;23.360;2023-05-19T09:07:45;96110.19;;;22.13;66.75
29169;BME280;16219;42.864;23.360;2023-05-19T09:10:16;96107.06;;;22.07;62.88
29169;BME280;16219;42.864;23.360;2023-05-19T09:12:45;96104.06;;;22.16;68.10
29169;BME280;16219;42.864;23.360;2023-05-19T09:15:16;96086.41;;;22.15;63.25
29169;BME280;16219;42.864;23.360;2023-05-19T09:17:45;96110.72;;;22.51;72.45
29169;BME280;16219;42.864;23.360;2023-05-19T09:20:16;96091.88;;;22.40;57.80
29169;BME280;16219;42.864;23.360;2023-05-19T09:22:44;96100.34;;;22.45;63.11
29169;BME280;16219;42.864;23.360;2023-05-19T09:25:19;96104.56;;;22.43;59.68
29169;BME280;16219;42.864;23.360;2023-05-19T09:27:48;96104.22;;;22.59;61.61
29169;BME280;16219;42.864;23.360;2023-05-19T09:30:16;96118.13;;;22.86;56.36
29169;BME280;16219;42.864;23.360;2023-05-19T09:32:44;96095.00;;;22.63;53.89
29169;BME280;16219;42.864;23.360;2023-05-19T09:35:13;96097.69;;;22.56;50.05
29169;BME280;16219;42.864;23.360;2023-05-19T09:37:42;96106.88;;;22.55;54.04
29169;BME280;16219;42.864;23.360;2023-05-19T09:40:13;96107.25;;;22.46;51.96
29169;BME280;16219;42.864;23.360;2023-05-19T09:42:42;96103.44;;;22.48;56.00
29169;BME280;16219;42.864;23.360;2023-05-19T09:45:10;96116.50;;;22.60;53.33
29169;BME280;16219;42.864;23.360;2023-05-19T09:47:39;96099.59;;;22.49;50.94
29169;BME280;16219;42.864;23.360;2023-05-19T09:50:08;96107.25;;;22.39;54.88
29169;BME280;16219;42.864;23.360;2023-05-19T09:52:36;96109.16;;;22.35;52.43
29169;BME280;16219;42.864;23.360;2023-05-19T09:55:07;96098.75;;;22.27;53.04
29169;BME280;16219;42.864;23.360;2023-05-19T09:57:36;96097.41;;;21.92;51.75
29169;BME280;16219;42.864;23.360;2023-05-19T10:00:08;96099.66;;;21.86;51.29
29169;BME280;16219;42.864;23.360;2023-05-19T10:02:47;96098.53;;;21.91;53.24
29169;BME280;16219;42.864;23.360;2023-05-19T10:05:16;96078.25;;;22.01;54.43
29169;BME280;16219;42.864;23.360;2023-05-19T10:07:44;96084.16;;;22.31;62.80
29169;BME280;16219;42.864;23.360;2023-05-19T10:10:14;96088.06;;;22.52;52.03
29169;BME280;16219;42.864;23.360;2023-05-19T10:12:42;96081.16;;;22.58;54.42
29169;BME280;16219;42.864;23.360;2023-05-19T10:15:12;96086.97;;;22.70;51.14
29169;BME280;16219;42.864;23.360;2023-05-19T10:17:42;96088.47;;;22.61;54.77
29169;BME280;16219;42.864;23.360;2023-05-19T10:20:11;96080.41;;;22.61;47.41
29169;BME280;16219;42.864;23.360;2023-05-19T10:22:39;96068.06;;;22.45;51.18
29169;BME280;16219;42.864;23.360;2023-05-19T10:25:08;96061.97;;;22.70;55.66
29169;BME280;16219;42.864;23.360;2023-05-19T10:27:39;96075.09;;;22.93;55.76
29169;BME280;16219;42.864;23.360;2023-05-19T10:30:13;96063.94;;;23.02;49.16
29169;BME280;16219;42.864;23.360;2023-05-19T10:32:43;96080.13;;;23.09;53.32
29169;BME280;16219;42.864;23.360;2023-05-19T10:38:36;96055.91;;;22.94;48.27
29169;BME280;16219;42.864;23.360;2023-05-19T10:41:23;96057.03;;;22.93;47.46
29169;BME280;16219;42.864;23.360;2023-05-19T10:46:26;96067.41;;;22.91;49.16
29169;BME280;16219;42.864;23.360;2023-05-19T10:48:55;96097.31;;;22.58;48.56
29169;BME280;16219;42.864;23.360;2023-05-19T10:51:27;96046.91;;;22.33;49.58
29169;BME280;16219;42.864;23.360;2023-05-19T10:53:56;96061.59;;;22.64;53.04
29169;BME280;16219;42.864;23.360;2023-05-19T10:56:28;96077.38;;;22.87;51.74
29169;BME280;16219;42.864;23.360;2023-05-19T10:58:58;96089.69;;;22.81;51.45
29169;BME280;16219;42.864;23.360;2023-05-19T11:01:31;96077.75;;;22.75;49.93
29169;BME280;16219;42.864;23.360;2023-05-19T11:04:05;96067.38;;;22.77;51.74
29169;BME280;16219;42.864;23.360;2023-05-19T11:06:33;96069.69;;;22.82;53.53
29169;BME280;16219;42.864;23.360;2023-05-19T11:09:10;96057.81;;;23.05;52.49
29169;BME280;16219;42.864;23.360;2023-05-19T11:11:45;96066.66;;;23.30;54.76
29169;BME280;16219;42.864;23.360;2023-05-19T11:14:15;96048.16;;;23.43;49.31
29169;BME280;16219;42.864;23.360;2023-05-19T11:16:47;96054.34;;;23.36;49.09
29169;BME280;16219;42.864;23.360;2023-05-19T11:19:18;96082.03;;;23.33;48.97
29169;BME280;16219;42.864;23.360;2023-05-19T11:21:51;96069.72;;;22.97;49.18
29169;BME280;16219;42.864;23.360;2023-05-19T11:24:32;96070.06;;;22.81;48.79
29169;BME280;16219;42.864;23.360;2023-05-19T11:27:19;96065.09;;;22.86;52.34
29169;BME280;16219;42.864;23.360;2023-05-19T11:29:47;96080.09;;;23.02;49.88
29169;BME280;16219;42.864;23.360;2023-05-19T11:32:17;96066.25;;;23.14;47.75
29169;BME280;16219;42.864;23.360;2023-05-19T11:34:47;96059.34;;;23.16;50.34
29169;BME280;16219;42.864;23.360;2023-05-19T11:37:15;96059.72;;;23.29;48.18
29169;BME280;16219;42.864;23.360;2023-05-19T11:39:44;96051.28;;;22.99;48.74
29169;BME280;16219;42.864;23.360;2023-05-19T11:42:12;96056.22;;;22.89;46.54
29169;BME280;16219;42.864;23.360;2023-05-19T11:44:40;96051.63;;;22.83;46.67
29169;BME280;16219;42.864;23.360;2023-05-19T11:47:10;96046.63;;;22.78;50.06
29169;BME280;16219;42.864;23.360;2023-05-19T11:49:42;96044.31;;;22.87;48.28
29169;BME280;16219;42.864;23.360;2023-05-19T11:52:10;96041.69;;;22.94;48.39
29169;BME280;16219;42.864;23.360;2023-05-19T11:54:38;96043.97;;;23.17;48.60
29169;BME280;16219;42.864;23.360;2023-05-19T11:57:07;96037.41;;;23.39;48.54
29169;BME280;16219;42.864;23.360;2023-05-19T11:59:41;96037.34;;;23.61;50.37
29169;BME280;16219;42.864;23.360;2023-05-19T12:02:16;96043.47;;;23.86;50.17
29169;BME280;16219;42.864;23.360;2023-05-19T12:04:46;96050.44;;;23.73;46.52
29169;BME280;16219;42.864;23.360;2023-05-19T12:07:22;96056.63;;;23.66;49.47
29169;BME280;16219;42.864;23.360;2023-05-19T12:09:50;96044.34;;;23.33;48.02
29169;BME280;16219;42.864;23.360;2023-05-19T12:12:19;96055.88;;;23.41;48.16
29169;BME280;16219;42.864;23.360;2023-05-19T12:14:49;96041.25;;;23.28;47.15
29169;BME280;16219;42.864;23.360;2023-05-19T12:17:19;96028.97;;;23.23;53.45
29169;BME280;16219;42.864;23.360;2023-05-19T12:19:48;96043.19;;;23.45;46.67
29169;BME280;16219;42.864;23.360;2023-05-19T12:22:19;96051.22;;;23.49;48.75
29169;BME280;16219;42.864;23.360;2023-05-19T12:24:47;96047.44;;;23.00;47.08
29169;BME280;16219;42.864;23.360;2023-05-19T12:27:17;96056.22;;;22.75;50.54
29169;BME280;16219;42.864;23.360;2023-05-19T12:29:49;96063.53;;;22.71;54.75
29169;BME280;16219;42.864;23.360;2023-05-19T12:32:22;96068.50;;;22.58;66.50
29169;BME280;16219;42.864;23.360;2023-05-19T12:34:52;96063.91;;;22.84;63.51
29169;BME280;16219;42.864;23.360;2023-05-19T12:37:20;96062.81;;;23.03;70.53
29169;BME280;16219;42.864;23.360;2023-05-19T12:39:47;96063.22;;;23.15;69.33
29169;BME280;16219;42.864;23.360;2023-05-19T12:42:15;96062.44;;;23.11;70.46
29169;BME280;16219;42.864;23.360;2023-05-19T12:44:43;96045.13;;;22.98;68.46
29169;BME280;16219;42.864;23.360;2023-05-19T12:47:12;96060.13;;;23.17;72.56
29169;BME280;16219;42.864;23.360;2023-05-19T12:49:55;96035.91;;;23.24;64.46
29169;BME280;16219;42.864;23.360;2023-05-19T12:52:23;96051.25;;;23.34;63.88
29169;BME280;16219;42.864;23.360;2023-05-19T12:54:57;96054.72;;;23.28;69.77
29169;BME280;16219;42.864;23.360;2023-05-19T12:57:24;96065.06;;;22.83;70.15
29169;BME280;16219;42.864;23.360;2023-05-19T12:59:52;96061.88;;;22.27;70.86
29169;BME280;16219;42.864;23.360;2023-05-19T13:02:19;96070.22;;;22.08;77.60
29169;BME280;16219;42.864;23.360;2023-05-19T13:04:47;96100.38;;;21.73;72.69
29169;BME280;16219;42.864;23.360;2023-05-19T13:07:15;96090.63;;;21.50;73.25